Wekiva Springs, Florida
Current Conditions -  °F | °C
As of 1:53 PM on Thursday 30 Oct 2014 (Local Time) from KORL Reporting Station
Few Clouds Few Clouds  
Wind Chill: 83°   Ceiling: Unl
Heat Index: 85°   Visibility: 10mi
Dew Point: 66°   Wind: 5mph
Humidity: 56%   Direction: 310°NW
Pressure: 29.92"   Gusts: NA
Location:  28.7°N, 81.42°W
Report Text: KORL 301753Z 31004KT 10SM FEW049 28/19 A2992 RMK AO2 SLP133 T02830189 10283 20206 58025
Loading
Personal Weather Stations






























Interactive Weather Map
Tropical Storm Tracking
New forecast layout! Learn more

10-Day Weather Forecast

Advertisements
Track Severe Weather on mobile